Time;durP1;ratioP1;P1;durP2;ratioP2;P2;SDS_P1;SDS_P2;PMS_P1;PMS_P2;Temp;Humidity;BMP_temperature;BMP_pressure;BME280_temperature;BME280_humidity;BME280_pressure;Samples;Min_cycle;Max_cycle;Signal;HPM_P1;HPM_P2
2022/10/13 00:01:31;;;;;;;6.28;2.42;;;;;;;8.76;100.00;101744.59;6274234;28;20052;-76
2022/10/13 00:04:32;;;;;;;6.05;2.40;;;;;;;8.74;100.00;101747.28;6274512;28;20045;-76
2022/10/13 00:07:34;;;;;;;5.20;2.63;;;;;;;8.75;100.00;101742.88;6274369;28;20041;-76
2022/10/13 00:10:37;;;;;;;8.35;3.15;;;;;;;8.74;100.00;101749.03;6274098;28;20057;-76
2022/10/13 00:13:41;;;;;;;4.35;2.60;;;;;;;8.75;100.00;101749.00;6274381;28;20060;-76
2022/10/13 00:16:42;;;;;;;3.95;2.78;;;;;;;8.75;100.00;101749.00;6274241;28;20056;-76
2022/10/13 00:19:44;;;;;;;6.10;2.63;;;;;;;8.76;100.00;101742.84;6274091;28;20056;-76
2022/10/13 00:22:45;;;;;;;6.03;2.80;;;;;;;8.75;100.00;101741.13;6274103;28;20056;-76
2022/10/13 00:25:48;;;;;;;8.25;3.00;;;;;;;8.73;100.00;101742.09;6273612;28;20052;-76
2022/10/13 00:28:51;;;;;;;3.47;2.42;;;;;;;8.73;100.00;101740.31;6273915;28;20055;-76
2022/10/13 00:31:52;;;;;;;5.97;2.83;;;;;;;8.74;100.00;101734.16;6273818;28;20052;-76
2022/10/13 00:34:54;;;;;;;3.90;2.50;;;;;;;8.74;100.00;101734.16;6273405;28;20411;-76
2022/10/13 00:37:55;;;;;;;6.07;3.05;;;;;;;8.77;100.00;101735.84;6274003;28;20053;-76
2022/10/13 00:40:57;;;;;;;5.18;2.53;;;;;;;8.79;100.00;101734.88;6273280;28;20056;-76
2022/10/13 00:44:01;;;;;;;7.38;2.60;;;;;;;8.81;100.00;101727.84;6273329;28;20065;-76
2022/10/13 00:47:03;;;;;;;4.53;2.60;;;;;;;8.84;100.00;101727.75;6273412;28;20049;-76
2022/10/13 00:50:07;;;;;;;4.82;2.45;;;;;;;8.89;100.00;101730.22;6273208;28;20060;-76
2022/10/13 00:53:11;;;;;;;4.60;2.63;;;;;;;8.93;100.00;101731.84;6273468;28;20053;-76
2022/10/13 00:56:15;;;;;;;4.05;2.33;;;;;;;8.94;100.00;101738.81;6271701;28;20060;-76
2022/10/13 00:59:22;;;;;;;4.22;2.25;;;;;;;8.93;100.00;101734.47;6273372;28;20064;-76
2022/10/13 01:02:27;;;;;;;3.35;2.40;;;;;;;8.94;100.00;101732.69;6273028;28;20045;-76
2022/10/13 01:05:30;;;;;;;4.88;2.70;;;;;;;8.90;100.00;101737.19;6272621;28;20133;-76
2022/10/13 01:08:32;;;;;;;3.78;2.28;;;;;;;8.88;100.00;101729.38;6273078;28;20049;-76
2022/10/13 01:11:46;;;;;;;3.25;2.28;;;;;;;8.88;100.00;101726.75;6272706;28;20095;-76
2022/10/13 01:14:55;;;;;;;3.60;2.53;;;;;;;8.90;100.00;101731.94;6272555;28;20138;-76
2022/10/13 01:18:06;;;;;;;4.35;2.25;;;;;;;8.89;100.00;101727.59;6272812;28;20049;-76
2022/10/13 01:21:27;;;;;;;4.63;2.13;;;;;;;8.86;100.00;101720.72;6272441;28;20053;-76
2022/10/13 01:24:54;;;;;;;6.50;3.13;;;;;;;8.86;100.00;101712.00;6272417;28;20053;-76
2022/10/13 01:28:12;;;;;;;3.33;2.10;;;;;;;8.83;100.00;101712.06;6272755;28;20056;-76
2022/10/13 01:31:20;;;;;;;7.25;2.17;;;;;;;8.79;100.00;101706.06;6272258;28;20448;-76
2022/10/13 01:34:29;;;;;;;4.07;2.05;;;;;;;8.76;100.00;101707.91;6272085;28;20420;-76
2022/10/13 01:37:37;;;;;;;3.45;2.17;;;;;;;8.69;100.00;101703.78;6272587;28;20045;-76
2022/10/13 01:40:44;;;;;;;3.78;2.38;;;;;;;8.64;100.00;101703.91;6271875;28;20428;-76
2022/10/13 01:43:52;;;;;;;5.45;2.42;;;;;;;8.62;100.00;101696.06;6271994;28;20072;-76
2022/10/13 01:46:55;;;;;;;7.00;3.13;;;;;;;8.59;100.00;101692.72;6272172;28;20045;-76
2022/10/13 01:49:57;;;;;;;5.38;3.22;;;;;;;8.57;100.00;101684.03;6271831;28;20417;-76
2022/10/13 01:53:01;;;;;;;8.43;2.58;;;;;;;8.55;100.00;101672.75;6272220;28;20053;-76
2022/10/13 01:56:03;;;;;;;3.88;2.05;;;;;;;8.56;100.00;101674.47;6271687;28;20048;-76
2022/10/13 01:59:08;;;;;;;4.85;2.22;;;;;;;8.57;100.00;101671.78;6271871;28;20048;-76
2022/10/13 02:02:18;;;;;;;3.95;2.30;;;;;;;8.58;100.00;101663.03;6271720;28;20056;-76
2022/10/13 02:05:28;;;;;;;6.07;3.08;;;;;;;8.56;100.00;101664.84;6271399;28;20420;-76
2022/10/13 02:08:37;;;;;;;4.97;2.83;;;;;;;8.56;100.00;101669.22;6271401;28;20048;-76
2022/10/13 02:11:45;;;;;;;5.05;2.75;;;;;;;8.56;100.00;101662.22;6271746;28;20524;-76
2022/10/13 02:14:49;;;;;;;3.63;2.25;;;;;;;8.53;100.00;101651.81;6271210;28;20056;-76
2022/10/13 02:17:53;;;;;;;3.83;2.45;;;;;;;8.57;100.00;101660.44;6271586;28;20048;-76
2022/10/13 02:20:55;;;;;;;4.20;2.33;;;;;;;8.55;100.00;101650.03;6271419;28;20048;-76
2022/10/13 02:23:57;;;;;;;7.00;3.42;;;;;;;8.63;100.00;101657.66;6271072;28;20420;-76
2022/10/13 02:26:58;;;;;;;7.07;2.72;;;;;;;8.60;100.00;101658.59;6271439;28;20041;-76
2022/10/13 02:30:00;;;;;;;4.28;2.70;;;;;;;8.58;100.00;101657.81;6271077;28;20052;-76
2022/10/13 02:33:03;;;;;;;3.72;2.22;;;;;;;8.58;100.00;101660.44;6271423;28;20053;-76
2022/10/13 02:36:04;;;;;;;4.63;2.92;;;;;;;8.59;100.00;101656.03;6270890;28;20048;-76
2022/10/13 02:39:08;;;;;;;5.03;2.53;;;;;;;8.57;100.00;101658.69;6271389;28;20049;-76
2022/10/13 02:42:10;;;;;;;8.10;3.20;;;;;;;8.58;100.00;101655.19;6270960;28;20052;-76
2022/10/13 02:45:11;;;;;;;5.88;2.90;;;;;;;8.58;100.00;101646.44;6271059;28;20048;-76
2022/10/13 02:48:14;;;;;;;8.23;3.05;;;;;;;8.54;100.00;101643.06;6271122;28;20052;-76
2022/10/13 02:51:15;;;;;;;4.65;2.70;;;;;;;8.54;100.00;101640.47;6270899;28;20048;-76
2022/10/13 02:54:17;;;;;;;9.90;3.10;;;;;;;8.54;100.00;101645.69;6258844;28;20080;-76
2022/10/13 02:57:18;;;;;;;4.72;3.03;;;;;;;8.52;100.00;101642.25;6266157;28;20045;-75
2022/10/13 03:00:20;;;;;;;4.25;2.40;;;;;;;8.52;100.00;101639.63;6262225;28;20057;-76
2022/10/13 03:03:23;;;;;;;10.20;3.13;;;;;;;8.52;100.00;101634.38;6249208;28;20042;-76
2022/10/13 03:06:25;;;;;;;4.38;2.78;;;;;;;8.52;100.00;101636.16;6254113;28;20132;-76
2022/10/13 03:09:26;;;;;;;6.35;2.80;;;;;;;8.55;100.00;101643.94;6259603;28;20046;-75
2022/10/13 03:12:28;;;;;;;6.60;2.50;;;;;;;8.57;100.00;101636.88;6258822;28;20615;-76
2022/10/13 03:15:29;;;;;;;6.10;2.45;;;;;;;8.58;100.00;101638.56;6259210;28;20042;-76
2022/10/13 03:18:32;;;;;;;7.80;2.80;;;;;;;8.60;100.00;101642.88;6269711;28;20052;-76
2022/10/13 03:21:34;;;;;;;4.53;2.75;;;;;;;8.62;100.00;101640.19;6275320;28;20057;-76
2022/10/13 03:24:35;;;;;;;6.63;2.88;;;;;;;8.65;100.00;101637.50;6275291;28;20056;-76
2022/10/13 03:27:37;;;;;;;4.70;2.47;;;;;;;8.67;100.00;101634.81;6275296;28;20056;-76
2022/10/13 03:30:38;;;;;;;4.68;2.63;;;;;;;8.67;100.00;101634.81;6275116;28;20416;-76
2022/10/13 03:33:41;;;;;;;3.55;2.47;;;;;;;8.64;100.00;101631.41;6275311;28;20049;-75
2022/10/13 03:36:43;;;;;;;6.30;3.20;;;;;;;8.67;100.00;101633.06;6275346;28;20059;-76
2022/10/13 03:39:44;;;;;;;5.90;2.92;;;;;;;8.70;100.00;101638.22;6274885;28;20049;-76
2022/10/13 03:42:46;;;;;;;8.43;4.18;;;;;;;8.70;100.00;101638.22;6275233;28;20052;-76
2022/10/13 03:45:55;;;;;;;9.43;2.70;;;;;;;8.69;100.00;101638.25;6274603;28;20053;-76
2022/10/13 03:48:57;;;;;;;6.88;3.50;;;;;;;8.71;100.00;101646.91;6274894;28;20041;-76
2022/10/13 03:51:59;;;;;;;4.55;2.70;;;;;;;8.73;100.00;101639.88;6274539;28;20052;-76
2022/10/13 03:55:00;;;;;;;9.27;3.20;;;;;;;8.73;100.00;101635.50;6274698;28;20102;-76
2022/10/13 03:58:02;;;;;;;9.00;3.22;;;;;;;8.74;100.00;101637.22;6268061;28;20488;-76
2022/10/13 04:01:04;;;;;;;7.18;3.55;;;;;;;8.73;100.00;101630.25;6260342;28;20056;-75
2022/10/13 04:04:08;;;;;;;5.30;2.70;;;;;;;8.72;100.00;101625.03;6260492;28;20053;-76
2022/10/13 04:07:09;;;;;;;4.55;2.67;;;;;;;8.69;100.00;101626.03;6259471;28;20049;-76
2022/10/13 04:10:10;;;;;;;11.57;3.75;;;;;;;8.70;100.00;101621.63;6261179;28;20060;-76
2022/10/13 04:13:12;;;;;;;6.80;2.53;;;;;;;8.71;100.00;101613.72;6259226;28;20049;-76
2022/10/13 04:16:15;;;;;;;6.60;3.22;;;;;;;8.71;100.00;101612.84;6261307;28;20049;-76
2022/10/13 04:19:18;;;;;;;6.63;3.08;;;;;;;8.71;100.00;101605.84;6251787;28;20417;-76
2022/10/13 04:22:19;;;;;;;7.05;3.60;;;;;;;8.74;100.00;101603.13;6249209;28;20056;-76
2022/10/13 04:25:20;;;;;;;5.95;3.38;;;;;;;8.77;100.00;101605.69;6249113;28;20082;-76
2022/10/13 04:28:22;;;;;;;5.70;3.38;;;;;;;8.78;100.00;101604.75;6249144;28;20416;-76
2022/10/13 04:31:24;;;;;;;14.13;3.33;;;;;;;8.79;100.00;101601.22;6248741;28;20053;-75
2022/10/13 04:34:27;;;;;;;11.20;3.47;;;;;;;8.81;100.00;101596.81;6249118;28;20049;-76
2022/10/13 04:37:28;;;;;;;7.07;3.10;;;;;;;8.82;100.00;101601.13;6249251;28;20046;-76
2022/10/13 04:40:30;;;;;;;11.32;3.75;;;;;;;8.83;100.00;101592.34;6249116;28;20049;-76
2022/10/13 04:43:32;;;;;;;9.88;3.92;;;;;;;8.80;100.00;101589.81;6249121;28;20050;-76
2022/10/13 04:46:34;;;;;;;6.93;3.45;;;;;;;8.83;100.00;101588.88;6248271;28;20042;-76
2022/10/13 04:49:37;;;;;;;9.45;3.75;;;;;;;8.82;100.00;101592.41;6249073;28;20046;-76
2022/10/13 04:52:38;;;;;;;9.30;4.10;;;;;;;8.81;100.00;101591.56;6248464;28;20419;-76
2022/10/13 04:55:40;;;;;;;9.23;4.25;;;;;;;8.80;100.00;101589.81;6248887;28;20061;-76
2022/10/13 04:58:42;;;;;;;8.95;3.75;;;;;;;8.80;100.00;101581.97;6248389;28;20413;-76
2022/10/13 05:01:44;;;;;;;11.77;4.07;;;;;;;8.81;100.00;101583.69;6248422;28;20057;-76
2022/10/13 05:04:47;;;;;;;7.60;3.58;;;;;;;8.80;100.00;101579.34;6248094;28;20060;-76
2022/10/13 05:07:48;;;;;;;8.50;3.95;;;;;;;8.80;100.00;101574.09;6248497;28;20053;-76
2022/10/13 05:10:54;;;;;;;6.93;3.55;;;;;;;8.82;100.00;101576.69;6248045;28;20088;-76
2022/10/13 05:13:56;;;;;;;5.43;3.42;;;;;;;8.84;100.00;101573.09;6247845;28;20176;-76
2022/10/13 05:16:57;;;;;;;8.82;3.33;;;;;;;8.85;100.00;101566.94;6248092;28;20520;-76
2022/10/13 05:20:00;;;;;;;7.75;3.88;;;;;;;8.88;100.00;101560.75;6247684;28;20053;-76
2022/10/13 05:23:02;;;;;;;11.45;4.50;;;;;;;8.88;100.00;101563.38;6248284;28;20045;-76
2022/10/13 05:26:04;;;;;;;8.85;3.17;;;;;;;8.90;100.00;101574.66;6247420;28;20056;-76
2022/10/13 05:29:06;;;;;;;7.57;4.13;;;;;;;8.96;100.00;101571.00;6247981;28;20057;-76
2022/10/13 05:32:07;;;;;;;7.13;3.50;;;;;;;8.98;100.00;101561.31;6247349;28;20425;-76
2022/10/13 05:35:10;;;;;;;7.72;4.38;;;;;;;9.02;100.00;101558.53;6247392;28;20466;-76
2022/10/13 05:38:12;;;;;;;8.93;3.85;;;;;;;9.06;100.00;101560.13;6247506;28;20049;-76
2022/10/13 05:41:14;;;;;;;8.25;4.25;;;;;;;9.09;100.00;101557.41;6246599;28;20386;-76
2022/10/13 05:44:16;;;;;;;8.00;3.85;;;;;;;9.13;100.00;101555.56;6247221;28;20493;-76
2022/10/13 05:47:17;;;;;;;10.27;4.35;;;;;;;9.17;100.00;101544.03;6247252;28;20080;-76
2022/10/13 05:50:20;;;;;;;6.60;3.65;;;;;;;9.21;100.00;101552.66;6247086;28;20049;-76
2022/10/13 05:53:23;;;;;;;6.88;3.75;;;;;;;9.26;100.00;101553.34;6247624;28;20053;-76
2022/10/13 05:56:27;;;;;;;9.07;4.63;;;;;;;9.29;100.00;101548.00;6247036;28;20056;-76
2022/10/13 05:59:32;;;;;;;7.60;4.28;;;;;;;9.32;100.00;101553.16;6247305;28;20057;-76
2022/10/13 06:02:42;;;;;;;7.43;3.22;;;;;;;9.36;100.00;101545.13;6247300;28;20497;-76
2022/10/13 06:05:46;;;;;;;7.57;3.55;;;;;;;9.39;100.00;101539.75;6246760;28;20049;-76
2022/10/13 06:08:47;;;;;;;8.40;4.10;;;;;;;9.43;100.00;101540.50;6246983;28;20049;-76
2022/10/13 06:11:49;;;;;;;9.05;3.45;;;;;;;9.45;100.00;101548.31;6246760;28;20049;-76
2022/10/13 06:14:51;;;;;;;10.00;4.15;;;;;;;9.47;100.00;101543.88;6246789;28;20061;-76
2022/10/13 06:17:52;;;;;;;7.32;3.78;;;;;;;9.49;100.00;101540.25;6246628;28;20041;-76
2022/10/13 06:20:55;;;;;;;10.18;3.55;;;;;;;9.52;100.00;101542.78;6246799;28;20049;-76
2022/10/13 06:23:56;;;;;;;10.95;4.97;;;;;;;9.54;100.00;101543.59;6246512;28;20060;-76
2022/10/13 06:26:58;;;;;;;9.05;4.45;;;;;;;9.55;100.00;101539.22;6246865;28;20056;-76
2022/10/13 06:29:59;;;;;;;7.38;3.60;;;;;;;9.58;100.00;101545.22;6246465;28;20053;-76
2022/10/13 06:33:01;;;;;;;8.20;3.75;;;;;;;9.59;100.00;101533.78;6246718;28;20054;-76
2022/10/13 06:36:05;;;;;;;7.53;4.30;;;;;;;9.64;100.00;101546.75;6246414;28;20049;-76
2022/10/13 06:39:07;;;;;;;12.77;3.80;;;;;;;9.65;100.00;101551.94;6246637;28;20052;-76
2022/10/13 06:42:08;;;;;;;8.15;3.80;;;;;;;9.70;100.00;101548.28;6246417;28;20049;-76
2022/10/13 06:45:10;;;;;;;10.32;4.43;;;;;;;9.73;100.00;101545.56;6246341;28;20054;-76
2022/10/13 06:48:11;;;;;;;7.72;4.28;;;;;;;9.76;100.00;101533.16;6246264;28;20164;-76
2022/10/13 06:51:14;;;;;;;10.10;4.10;;;;;;;9.80;100.00;101515.53;6246025;28;20417;-75
2022/10/13 06:54:16;;;;;;;9.05;4.22;;;;;;;9.85;100.00;101513.56;6250180;28;20056;-76
2022/10/13 06:57:17;;;;;;;10.18;4.18;;;;;;;9.88;100.00;101519.56;6250923;28;20076;-75
2022/10/13 07:00:20;;;;;;;5.30;3.45;;;;;;;9.92;100.00;101525.56;6250913;28;20540;-76
2022/10/13 07:03:22;;;;;;;13.27;4.38;;;;;;;9.94;100.00;101534.22;6251289;28;20057;-76
2022/10/13 07:06:25;;;;;;;13.40;4.40;;;;;;;9.98;100.00;101550.72;6266265;28;20052;-76
2022/10/13 07:09:26;;;;;;;8.70;4.47;;;;;;;10.02;100.00;101544.44;6274161;28;20045;-76
2022/10/13 07:12:28;;;;;;;10.68;4.10;;;;;;;10.05;100.00;101537.31;6270283;28;20056;-76
2022/10/13 07:15:29;;;;;;;11.80;4.47;;;;;;;10.10;100.00;101534.50;6270870;28;20071;-75
2022/10/13 07:18:31;;;;;;;11.18;5.28;;;;;;;10.15;100.00;101522.06;6271924;28;20037;-76
2022/10/13 07:21:34;;;;;;;9.00;4.53;;;;;;;10.20;100.00;101533.22;6261507;28;20520;-76
2022/10/13 07:24:35;;;;;;;9.38;4.38;;;;;;;10.25;100.00;101533.09;6256600;28;20064;-75
2022/10/13 07:27:39;;;;;;;14.13;4.57;;;;;;;10.30;100.00;101528.50;6275178;28;20041;-75
2022/10/13 07:30:41;;;;;;;10.57;4.72;;;;;;;10.36;100.00;101525.66;6274692;28;20048;-76
2022/10/13 07:33:44;;;;;;;7.80;4.30;;;;;;;10.41;100.00;101534.19;6274281;28;20076;-76
2022/10/13 07:36:47;;;;;;;9.40;4.93;;;;;;;10.47;100.00;101523.44;6274907;28;20420;-75
2022/10/13 07:39:48;;;;;;;11.05;5.00;;;;;;;10.53;100.00;101512.66;6274506;28;20049;-75
2022/10/13 07:42:49;;;;;;;7.38;4.18;;;;;;;10.59;100.00;101512.44;6275049;28;20060;-76
2022/10/13 07:45:51;;;;;;;9.60;4.60;;;;;;;10.63;100.00;101511.38;6274527;28;20049;-75
2022/10/13 07:48:53;;;;;;;13.07;4.82;;;;;;;10.66;100.00;101513.00;6274601;28;20045;-75
2022/10/13 07:51:56;;;;;;;10.43;4.70;;;;;;;10.69;100.00;101519.94;6274460;28;20057;-75
2022/10/13 07:54:57;;;;;;;10.50;4.55;;;;;;;10.76;100.00;101508.22;6274693;28;20045;-77
2022/10/13 07:58:01;;;;;;;8.68;3.85;;;;;;;10.80;100.00;101521.19;6274792;28;20049;-76
2022/10/13 08:01:03;;;;;;;8.48;4.45;;;;;;;10.84;100.00;101516.66;6274469;28;20049;-76
2022/10/13 08:04:05;;;;;;;8.93;4.32;;;;;;;10.89;100.00;101523.41;6273503;28;20048;-76
2022/10/13 08:07:08;;;;;;;10.88;4.20;;;;;;;10.98;100.00;101519.56;6274591;28;20051;-75
2022/10/13 08:10:10;;;;;;;9.77;4.68;;;;;;;11.07;100.00;101523.56;6274227;28;20052;-75
2022/10/13 08:13:12;;;;;;;12.55;5.18;;;;;;;11.11;100.00;101525.16;6274486;28;20045;-77
2022/10/13 08:16:13;;;;;;;9.13;4.50;;;;;;;11.18;100.00;101521.34;6273680;28;20419;-76
2022/10/13 08:19:16;;;;;;;7.72;3.70;;;;;;;11.26;100.00;101529.72;6274115;28;20608;-76
2022/10/13 08:22:19;;;;;;;6.95;3.90;;;;;;;11.34;100.00;101518.88;6273929;28;20060;-76
2022/10/13 08:25:20;;;;;;;7.88;4.20;;;;;;;11.40;100.00;101513.38;6273478;28;20057;-76
2022/10/13 08:28:24;;;;;;;8.10;3.95;;;;;;;11.47;100.00;101503.41;6274032;28;20045;-76
2022/10/13 08:31:26;;;;;;;9.73;3.97;;;;;;;11.55;100.00;101494.25;6273431;28;20049;-76
2022/10/13 08:34:28;;;;;;;8.00;3.92;;;;;;;11.63;100.00;101483.38;6271323;28;20048;-76
2022/10/13 08:37:30;;;;;;;12.30;4.72;;;;;;;11.69;100.00;101505.00;6268614;28;20056;-76
2022/10/13 08:40:32;;;;;;;9.55;4.70;;;;;;;11.76;100.00;101513.44;6273238;28;20416;-76
2022/10/13 08:43:33;;;;;;;9.10;4.43;;;;;;;11.86;100.00;101514.78;6270448;28;20049;-76
2022/10/13 08:46:43;;;;;;;10.35;4.05;;;;;;;12.02;100.00;101508.78;6272484;28;20049;-75
2022/10/13 08:49:45;;;;;;;9.27;4.68;;;;;;;12.11;100.00;101505.72;6271978;28;20051;-75
2022/10/13 08:52:52;;;;;;;11.60;4.63;;;;;;;12.18;100.00;101499.25;6272937;28;20499;-76
2022/10/13 08:55:57;;;;;;;11.60;3.80;;;;;;;12.25;100.00;101490.09;6272994;28;20056;-76
2022/10/13 08:59:00;;;;;;;11.50;5.15;;;;;;;12.29;100.00;101496.94;6273178;28;20408;-76
2022/10/13 09:02:09;;;;;;;10.02;4.10;;;;;;;12.33;100.00;101502.91;6273131;28;20049;-76
2022/10/13 09:05:18;;;;;;;9.20;3.92;;;;;;;12.44;100.00;101503.22;6272573;28;20460;-76
2022/10/13 09:08:22;;;;;;;9.70;3.80;;;;;;;12.50;100.00;101504.75;6273031;28;20056;-77
2022/10/13 09:11:26;;;;;;;7.97;4.10;;;;;;;12.61;100.00;101502.41;6272623;28;20053;-75
2022/10/13 09:14:30;;;;;;;10.88;4.28;;;;;;;12.69;100.00;101500.25;6272436;28;20049;-76
2022/10/13 09:17:32;;;;;;;8.95;4.30;;;;;;;12.75;100.00;101496.44;6271739;28;20057;-76
2022/10/13 09:20:34;;;;;;;8.35;4.53;;;;;;;12.80;100.00;101492.63;6272468;28;20045;-75
2022/10/13 09:23:37;;;;;;;9.48;4.10;;;;;;;12.87;100.00;101495.84;6272621;28;20496;-74
2022/10/13 09:26:39;;;;;;;12.13;4.82;;;;;;;12.96;100.00;101498.00;6271674;28;20420;-76
2022/10/13 09:29:42;;;;;;;8.48;4.30;;;;;;;13.03;100.00;101504.66;6272080;28;20052;-77
2022/10/13 09:32:43;;;;;;;18.25;4.85;;;;;;;13.04;100.00;101492.34;6272238;28;20041;-75
2022/10/13 09:35:47;;;;;;;15.93;4.65;;;;;;;13.11;100.00;101481.38;6272033;28;20048;-75
2022/10/13 09:39:12;;;;;;;9.35;4.38;;;;;;;13.21;100.00;101495.78;6272278;28;20049;-75
2022/10/13 09:42:22;;;;;;;7.57;3.90;;;;;;;13.34;100.00;101489.91;6271361;28;20072;-75
2022/10/13 09:45:25;;;;;;;9.63;4.53;;;;;;;13.41;100.00;101489.50;6271998;28;20049;-75
2022/10/13 09:48:30;;;;;;;6.63;4.10;;;;;;;13.45;100.00;101477.00;6271793;28;20049;-75
2022/10/13 09:51:38;;;;;;;9.20;3.40;;;;;;;13.55;100.00;101480.84;6271921;28;20052;-75
2022/10/13 09:54:46;;;;;;;8.70;3.77;;;;;;;13.78;100.00;101476.09;6271688;28;20130;-75
2022/10/13 09:57:50;;;;;;;11.10;4.80;;;;;;;13.84;100.00;101473.94;6272222;28;20287;-75
2022/10/13 10:00:53;;;;;;;5.93;3.65;;;;;;;13.83;100.00;101472.25;6268771;28;20045;-75
2022/10/13 10:03:56;;;;;;;7.90;4.30;;;;;;;13.86;100.00;101456.25;6271462;28;20045;-76
2022/10/13 10:06:58;;;;;;;9.07;3.28;;;;;;;13.79;100.00;101464.59;6271764;28;20045;-76
2022/10/13 10:10:04;;;;;;;10.70;4.00;;;;;;;13.86;100.00;101464.16;6271129;28;20518;-76
2022/10/13 10:13:10;;;;;;;13.30;4.68;;;;;;;13.90;100.00;101462.22;6271715;28;20056;-76
2022/10/13 10:16:19;;;;;;;8.20;3.17;;;;;;;13.85;100.00;101462.47;6271243;28;20056;-76
2022/10/13 10:19:27;;;;;;;11.37;4.20;;;;;;;13.82;100.00;101453.84;6271780;28;20045;-76
2022/10/13 10:22:35;;;;;;;8.40;4.38;;;;;;;13.95;100.00;101460.16;6271380;28;20056;-75
2022/10/13 10:25:43;;;;;;;9.13;4.20;;;;;;;14.00;100.00;101454.63;6271204;28;20049;-76
2022/10/13 10:29:02;;;;;;;7.93;3.22;;;;;;;14.10;100.00;101448.72;6271222;28;20531;-75
2022/10/13 10:32:14;;;;;;;7.33;4.10;;;;;;;14.26;100.00;101450.47;6271168;28;20053;-76
2022/10/13 10:35:21;;;;;;;8.50;3.85;;;;;;;14.36;100.00;101447.22;6271192;28;20049;-77
2022/10/13 10:38:35;;;;;;;8.10;3.92;;;;;;;14.46;100.00;101442.25;6271167;28;20056;-75
2022/10/13 10:41:48;;;;;;;11.05;3.15;;;;;;;14.52;100.00;101436.63;6271163;28;20420;-75
2022/10/13 10:44:53;;;;;;;9.48;3.78;;;;;;;14.58;100.00;101430.13;6270713;28;20518;-76
2022/10/13 10:47:59;;;;;;;6.05;3.75;;;;;;;14.66;100.00;101434.00;6270882;28;20412;-76
2022/10/13 10:51:01;;;;;;;7.03;3.65;;;;;;;14.71;100.00;101433.75;6270926;28;20049;-76
2022/10/13 10:54:15;;;;;;;11.35;3.92;;;;;;;14.84;100.00;101434.72;6271112;28;20056;-76
2022/10/13 10:57:27;;;;;;;6.88;3.10;;;;;;;14.84;100.00;101429.41;6270963;28;20049;-76
2022/10/13 11:00:29;;;;;;;7.55;3.00;;;;;;;14.90;100.00;101422.94;6267772;28;20041;-76
2022/10/13 11:03:40;;;;;;;6.85;3.40;;;;;;;14.90;100.00;101426.41;6246205;28;20060;-75
2022/10/13 11:06:42;;;;;;;7.72;3.40;;;;;;;15.03;99.76;101415.91;6246525;28;20046;-76
2022/10/13 11:10:17;;;;;;;10.32;3.65;;;;;;;15.04;100.00;101419.44;6245869;28;20052;-76
2022/10/13 11:13:21;;;;;;;7.88;3.22;;;;;;;15.00;100.00;101425.84;6246115;28;20424;-76
2022/10/13 11:16:30;;;;;;;9.52;3.17;;;;;;;15.09;97.95;101415.56;6267807;28;20053;-77
2022/10/13 11:19:34;;;;;;;6.93;3.35;;;;;;;15.11;99.64;101418.94;6268153;28;20048;-75
2022/10/13 11:22:36;;;;;;;5.18;3.03;;;;;;;15.12;99.96;101399.47;6269929;28;20496;-75
2022/10/13 11:25:39;;;;;;;12.38;4.03;;;;;;;15.14;98.64;101394.94;6270361;28;20060;-75
2022/10/13 11:28:48;;;;;;;9.07;3.35;;;;;;;15.20;97.82;101401.63;6270567;28;20045;-75
2022/10/13 11:31:53;;;;;;;7.80;3.58;;;;;;;15.33;95.61;101399.94;6270373;28;20056;-74
2022/10/13 11:34:59;;;;;;;7.80;3.35;;;;;;;15.30;97.00;101389.53;6269829;28;20056;-75
2022/10/13 11:38:16;;;;;;;7.88;3.35;;;;;;;15.45;96.60;101377.13;6270498;28;20056;-75
2022/10/13 11:41:23;;;;;;;8.40;3.30;;;;;;;15.42;97.29;101379.97;6272960;28;20049;-75
2022/10/13 11:44:33;;;;;;;6.90;3.00;;;;;;;15.39;96.88;101377.50;6274824;28;20049;-76
2022/10/13 11:47:58;;;;;;;10.75;3.53;;;;;;;15.40;96.55;101372.13;6276947;28;20416;-78
2022/10/13 11:51:12;;;;;;;8.25;3.83;;;;;;;15.34;98.34;101380.44;6277570;28;20060;-78
2022/10/13 11:54:29;;;;;;;8.07;3.30;;;;;;;15.25;97.60;101377.53;6276824;28;20048;-75
2022/10/13 11:57:31;;;;;;;7.35;2.97;;;;;;;15.26;94.61;101373.91;6274751;28;20049;-75
2022/10/13 12:00:34;;;;;;;5.78;3.30;;;;;;;15.12;97.12;101380.94;6274597;28;20501;-75
2022/10/13 12:03:37;;;;;;;5.05;3.42;;;;;;;15.04;98.56;101371.78;6274577;28;20052;-75
2022/10/13 12:06:39;;;;;;;5.13;2.95;;;;;;;15.02;99.84;101371.00;6273922;28;20053;-75
2022/10/13 12:09:49;;;;;;;13.52;3.78;;;;;;;14.99;99.60;101366.78;6271461;28;20044;-75
2022/10/13 12:12:51;;;;;;;6.03;2.95;;;;;;;15.10;97.61;101366.09;6274609;28;20056;-74
2022/10/13 12:16:04;;;;;;;5.03;2.80;;;;;;;15.03;98.37;101362.13;6273870;28;20053;-75
2022/10/13 12:19:09;;;;;;;6.70;3.25;;;;;;;15.06;97.76;101356.66;6274533;28;20052;-75
2022/10/13 12:22:12;;;;;;;7.85;3.80;;;;;;;15.04;98.43;101361.19;6273594;28;20416;-75
2022/10/13 12:25:17;;;;;;;6.90;2.72;;;;;;;15.05;99.22;101357.59;6273714;28;20076;-75
2022/10/13 12:28:19;;;;;;;10.00;3.40;;;;;;;15.07;98.69;101351.25;6273925;28;20049;-75
2022/10/13 12:31:25;;;;;;;7.68;3.50;;;;;;;15.12;97.79;101361.53;6273520;28;20052;-75
2022/10/13 12:34:27;;;;;;;6.32;2.88;;;;;;;15.09;98.06;101349.38;6273641;28;20053;-75
2022/10/13 12:37:32;;;;;;;5.60;2.70;;;;;;;15.09;98.22;101341.44;6273730;28;20488;-75
2022/10/13 12:40:34;;;;;;;9.38;3.15;;;;;;;15.09;97.75;101348.53;6273613;28;20577;-75
2022/10/13 12:43:35;;;;;;;10.75;3.13;;;;;;;15.11;97.55;101350.09;6273806;28;20053;-75
2022/10/13 12:46:41;;;;;;;6.65;3.10;;;;;;;15.16;97.42;101349.81;6273137;28;20416;-74
2022/10/13 12:49:42;;;;;;;8.38;2.95;;;;;;;15.12;96.76;101350.97;6273207;28;20056;-75
2022/10/13 12:52:44;;;;;;;7.38;3.28;;;;;;;15.09;97.42;101348.53;6273667;28;20045;-74
2022/10/13 12:55:49;;;;;;;7.82;3.40;;;;;;;15.10;96.97;101340.47;6280336;23;20045;-78
2022/10/13 12:58:50;;;;;;;9.77;3.00;;;;;;;15.06;97.55;101344.25;6253455;28;20045;-79
2022/10/13 13:01:56;;;;;;;6.45;3.35;;;;;;;15.06;96.81;101338.13;6274818;28;20045;-79
2022/10/13 13:04:57;;;;;;;9.20;3.97;;;;;;;15.08;96.51;101337.09;6256581;28;20061;-79
2022/10/13 13:08:00;;;;;;;6.95;3.08;;;;;;;15.09;95.62;101340.59;6250254;28;20056;-78
2022/10/13 13:11:05;;;;;;;6.05;2.85;;;;;;;15.12;95.84;101341.22;6250028;28;20069;-79
2022/10/13 13:14:24;;;;;;;4.43;2.47;;;;;;;15.05;97.56;101337.28;6250112;28;20056;-79
2022/10/13 13:17:31;;;;;;;5.13;2.77;;;;;;;15.08;96.31;101336.22;6250197;28;20057;-78
2022/10/13 13:20:36;;;;;;;10.48;3.20;;;;;;;15.10;96.07;101329.88;6249617;28;20830;-79
2022/10/13 13:23:38;;;;;;;8.75;2.50;;;;;;;15.09;95.40;101325.53;6263541;28;20071;-79
2022/10/13 13:26:39;;;;;;;8.25;2.53;;;;;;;15.09;95.07;101325.53;6266019;28;20059;-78
2022/10/13 13:29:41;;;;;;;8.18;3.35;;;;;;;15.09;95.31;101325.53;6274498;28;20045;-79
2022/10/13 13:32:44;;;;;;;4.43;2.40;;;;;;;15.12;95.55;101327.97;6285944;28;20045;-79
2022/10/13 13:35:47;;;;;;;8.05;3.40;;;;;;;15.19;95.70;101325.81;6277423;28;20556;-79
2022/10/13 13:38:49;;;;;;;9.73;3.13;;;;;;;15.35;93.39;101329.19;6274860;28;20056;-78
2022/10/13 13:41:51;;;;;;;5.35;2.58;;;;;;;15.56;92.23;101321.66;6275112;28;20049;-78
2022/10/13 13:44:52;;;;;;;5.28;2.75;;;;;;;15.73;92.24;101331.19;6283421;28;20045;-78
2022/10/13 13:47:55;;;;;;;7.28;3.03;;;;;;;15.85;91.89;101322.44;6280455;28;20057;-78
2022/10/13 13:50:56;;;;;;;7.45;3.25;;;;;;;15.92;91.68;101317.56;6273138;28;20049;-78
2022/10/13 13:53:58;;;;;;;11.98;2.88;;;;;;;15.93;92.20;101308.66;6270103;28;20129;-79
2022/10/13 13:56:59;;;;;;;6.97;3.05;;;;;;;15.96;94.25;101311.09;6270335;28;20930;-79
2022/10/13 14:00:01;;;;;;;7.38;3.30;;;;;;;15.94;93.24;101311.22;6272227;28;20045;-78
2022/10/13 14:03:04;;;;;;;5.38;3.17;;;;;;;15.94;91.57;101311.22;6282442;28;20040;-78
2022/10/13 14:06:05;;;;;;;7.15;3.28;;;;;;;15.94;91.92;101311.22;6279324;28;20045;-77
2022/10/13 14:09:07;;;;;;;7.40;2.45;;;;;;;15.95;92.30;101312.91;6273899;28;20055;-79
2022/10/13 14:12:08;;;;;;;6.97;3.00;;;;;;;15.97;94.31;101310.16;6273713;28;20049;-79